Time;durP1;ratioP1;P1;durP2;ratioP2;P2;SDS_P1;SDS_P2;PMS_P1;PMS_P2;Temp;Humidity;BMP_temperature;BMP_pressure;BME280_temperature;BME280_humidity;BME280_pressure;Samples;Min_cycle;Max_cycle;Signal;HPM_P1;HPM_P2
2023/09/13 00:01:39;;;;;;;;;;;;;;;19.60;100.00;101226.41;5047979;28;19913;-62
2023/09/13 00:04:05;;;;;;;;;;;;;;;19.63;100.00;101221.94;5053627;28;19990;-62
2023/09/13 00:06:30;;;;;;;;;;;;;;;19.62;100.00;101214.94;5056401;28;19939;-62
2023/09/13 00:08:55;;;;;;;;;;;;;;;19.61;100.00;101223.75;5049383;28;20151;-62
2023/09/13 00:11:20;;;;;;;;;;;;;;;19.62;100.00;101219.31;5047974;28;19977;-62
2023/09/13 00:13:45;;;;;;;;;;;;;;;19.62;100.00;101228.16;5051354;28;20054;-62
2023/09/13 00:16:11;;;;;;;;;;;;;;;19.61;100.00;101218.47;5052000;28;19912;-61
2023/09/13 00:18:36;;;;;;;;;;;;;;;19.64;100.00;101222.84;5049103;28;19967;-62
2023/09/13 00:21:01;;;;;;;;;;;;;;;19.66;100.00;101225.47;5056779;28;19941;-62
2023/09/13 00:23:27;;;;;;;;;;;;;;;19.68;100.00;101219.25;5050177;28;19913;-62
2023/09/13 00:25:52;;;;;;;;;;;;;;;19.59;100.00;101214.94;5045881;28;20142;-63
2023/09/13 00:28:17;;;;;;;;;;;;;;;19.49;100.00;101229.09;5052796;28;19912;-63
2023/09/13 00:30:44;;;;;;;;;;;;;;;19.46;100.00;101223.84;5044496;28;19921;-63
2023/09/13 00:33:09;;;;;;;;;;;;;;;19.41;100.00;101225.66;5057100;28;19942;-63
2023/09/13 00:35:35;;;;;;;;;;;;;;;19.34;100.00;101222.19;5056214;28;19925;-63
2023/09/13 00:38:00;;;;;;;;;;;;;;;19.25;100.00;101223.13;5054904;28;19933;-62
2023/09/13 00:40:25;;;;;;;;;;;;;;;19.14;100.00;101227.56;5041658;28;19916;-62
2023/09/13 00:42:50;;;;;;;;;;;;;;;19.08;100.00;101220.56;5052927;28;19947;-63
2023/09/13 00:45:16;;;;;;;;;;;;;;;19.07;100.00;101225.84;5048788;28;19914;-62
2023/09/13 00:47:41;;;;;;;;;;;;;;;18.97;100.00;101226.78;5051796;28;19913;-63
2023/09/13 00:50:08;;;;;;;;;;;;;;;18.93;100.00;101223.31;5050368;28;19933;-62
2023/09/13 00:52:33;;;;;;;;;;;;;;;18.85;100.00;101219.78;5055267;28;19974;-62
2023/09/13 00:54:59;;;;;;;;;;;;;;;18.81;100.00;101220.69;5042067;28;19917;-62
2023/09/13 00:57:24;;;;;;;;;;;;;;;18.72;100.00;101222.47;5057616;28;19984;-62
2023/09/13 00:59:49;;;;;;;;;;;;;;;18.74;100.00;101217.16;5057684;28;19913;-62
2023/09/13 01:02:15;;;;;;;;;;;;;;;18.73;100.00;101211.03;5053027;28;19979;-62
2023/09/13 01:04:40;;;;;;;;;;;;;;;18.73;100.00;101218.09;5052547;28;20168;-63
2023/09/13 01:07:08;;;;;;;;;;;;;;;18.71;100.00;101212.81;5043551;28;19917;-62
2023/09/13 01:09:33;;;;;;;;;;;;;;;18.59;100.00;101218.13;5047021;28;19952;-62
2023/09/13 01:11:59;;;;;;;;;;;;;;;18.54;100.00;101210.22;5048547;28;19951;-62
2023/09/13 01:14:25;;;;;;;;;;;;;;;18.50;100.00;101213.75;5048294;28;19988;-62
2023/09/13 01:17:03;;;;;;;;;;;;;;;18.52;100.00;101206.69;5044279;28;20042;-62
2023/09/13 01:19:41;;;;;;;;;;;;;;;18.52;100.00;101206.69;5044312;28;19932;-62
2023/09/13 01:22:09;;;;;;;;;;;;;;;18.52;100.00;101206.69;5035914;28;20021;-62
2023/09/13 01:24:50;;;;;;;;;;;;;;;18.52;100.00;101217.25;5044265;28;19917;-62
2023/09/13 01:27:22;;;;;;;;;;;;;;;18.48;100.00;101220.81;5045749;28;19913;-62
2023/09/13 01:29:50;;;;;;;;;;;;;;;18.48;100.00;101220.81;5046225;28;20042;-62
2023/09/13 01:32:15;;;;;;;;;;;;;;;18.46;100.00;101216.41;5048263;28;19944;-62
2023/09/13 01:34:40;;;;;;;;;;;;;;;18.50;100.00;101219.03;5053310;28;20239;-62
2023/09/13 01:37:05;;;;;;;;;;;;;;;18.42;100.00;101221.72;5049019;28;19962;-62
2023/09/13 01:39:30;;;;;;;;;;;;;;;18.41;100.00;101219.06;5045717;28;20110;-62
2023/09/13 01:42:03;;;;;;;;;;;;;;;18.40;100.00;101219.94;5049537;28;19913;-62
2023/09/13 01:44:30;;;;;;;;;;;;;;;18.38;100.00;101227.00;5046128;28;19992;-62
2023/09/13 01:46:55;;;;;;;;;;;;;;;18.38;100.00;101225.22;5048079;28;19913;-62
2023/09/13 01:49:21;;;;;;;;;;;;;;;18.35;100.00;101229.63;5047160;28;19931;-62
2023/09/13 01:51:47;;;;;;;;;;;;;;;18.34;100.00;101238.44;5045176;28;19913;-62
2023/09/13 01:54:12;;;;;;;;;;;;;;;18.32;100.00;101243.72;5039985;28;19928;-62
2023/09/13 01:56:37;;;;;;;;;;;;;;;18.32;100.00;101246.34;5043192;28;19913;-62
2023/09/13 01:59:02;;;;;;;;;;;;;;;18.34;100.00;101243.72;5042401;28;19971;-62
2023/09/13 02:01:28;;;;;;;;;;;;;;;18.37;100.00;101234.00;5042964;28;19919;-62
2023/09/13 02:03:53;;;;;;;;;;;;;;;18.36;100.00;101244.56;5043627;28;19913;-62
2023/09/13 02:06:18;;;;;;;;;;;;;;;18.31;100.00;101241.94;5052446;28;19929;-62
2023/09/13 02:08:45;;;;;;;;;;;;;;;18.35;100.00;101245.44;5049531;28;19920;-62
2023/09/13 02:11:10;;;;;;;;;;;;;;;18.30;100.00;101252.50;5025431;28;19920;-62
2023/09/13 02:13:36;;;;;;;;;;;;;;;18.24;100.00;101249.00;5052474;28;19913;-62
2023/09/13 02:16:01;;;;;;;;;;;;;;;18.20;100.00;101251.63;5052473;28;20206;-62
2023/09/13 02:18:26;;;;;;;;;;;;;;;18.20;100.00;101259.56;5043300;28;20285;-62
2023/09/13 02:20:52;;;;;;;;;;;;;;;18.17;100.00;101256.91;5047768;28;19921;-62
2023/09/13 02:23:17;;;;;;;;;;;;;;;18.14;100.00;101249.03;5049438;28;19913;-62
2023/09/13 02:25:44;;;;;;;;;;;;;;;18.15;100.00;101264.84;5049708;28;20159;-62
2023/09/13 02:28:10;;;;;;;;;;;;;;;18.13;100.00;101261.31;5058510;28;20067;-61
2023/09/13 02:30:35;;;;;;;;;;;;;;;18.16;100.00;101261.34;5056182;28;19929;-62
2023/09/13 02:33:00;;;;;;;;;;;;;;;18.05;100.00;101263.09;5052831;28;19929;-62
2023/09/13 02:35:26;;;;;;;;;;;;;;;18.01;100.00;101264.84;5045056;28;19952;-61
2023/09/13 02:37:51;;;;;;;;;;;;;;;18.01;100.00;101262.19;5041226;28;19935;-62
2023/09/13 02:40:16;;;;;;;;;;;;;;;18.09;100.00;101264.84;5043383;28;19920;-62
2023/09/13 02:42:41;;;;;;;;;;;;;;;18.02;100.00;101273.66;5019061;28;19917;-62
2023/09/13 02:45:07;;;;;;;;;;;;;;;17.99;100.00;101265.75;5040784;28;20063;-62
2023/09/13 02:47:32;;;;;;;;;;;;;;;18.00;100.00;101264.84;5041971;28;19928;-62
2023/09/13 02:49:57;;;;;;;;;;;;;;;18.00;100.00;101262.19;5047505;28;19944;-62
2023/09/13 02:52:30;;;;;;;;;;;;;;;18.19;100.00;101263.97;5048608;28;20139;-62
2023/09/13 02:54:56;;;;;;;;;;;;;;;18.05;100.00;101265.72;5048033;28;21144;-62
2023/09/13 02:57:21;;;;;;;;;;;;;;;18.06;100.00;101267.47;5058398;28;19909;-62
2023/09/13 02:59:46;;;;;;;;;;;;;;;18.02;100.00;101266.59;5042756;28;19913;-62
2023/09/13 03:02:11;;;;;;;;;;;;;;;18.02;100.00;101269.25;5048548;28;20150;-62
2023/09/13 03:04:37;;;;;;;;;;;;;;;18.02;100.00;101276.28;5050814;28;20044;-62
2023/09/13 03:07:02;;;;;;;;;;;;;;;18.03;100.00;101280.66;5051652;28;19920;-62
2023/09/13 03:09:27;;;;;;;;;;;;;;;17.98;100.00;101274.53;5046090;28;19947;-62
2023/09/13 03:11:52;;;;;;;;;;;;;;;17.99;100.00;101274.53;5051904;28;19940;-62
2023/09/13 03:14:18;;;;;;;;;;;;;;;17.98;100.00;101274.53;5045716;28;19913;-62
2023/09/13 03:16:43;;;;;;;;;;;;;;;17.98;100.00;101279.78;5062702;28;19987;-62
2023/09/13 03:19:09;;;;;;;;;;;;;;;17.99;100.00;101278.94;5045901;28;19933;-62
2023/09/13 03:21:34;;;;;;;;;;;;;;;17.97;100.00;101281.53;5049794;28;19960;-62
2023/09/13 03:23:59;;;;;;;;;;;;;;;18.03;100.00;101291.19;5029164;28;20224;-62
2023/09/13 03:26:25;;;;;;;;;;;;;;;18.07;100.00;101282.41;5057706;28;19913;-62
2023/09/13 03:28:54;;;;;;;;;;;;;;;18.01;100.00;101283.28;5051774;28;19920;-62
2023/09/13 03:31:21;;;;;;;;;;;;;;;17.96;100.00;101286.81;5053710;28;19976;-62
2023/09/13 03:33:47;;;;;;;;;;;;;;;17.94;100.00;101286.81;5046346;28;19913;-62
2023/09/13 03:36:13;;;;;;;;;;;;;;;17.92;100.00;101293.00;5048767;28;19919;-62
2023/09/13 03:38:39;;;;;;;;;;;;;;;18.00;100.00;101288.56;5057835;28;19914;-62
2023/09/13 03:41:08;;;;;;;;;;;;;;;17.92;100.00;101290.34;5061233;28;19912;-62
2023/09/13 03:43:33;;;;;;;;;;;;;;;17.93;100.00;101292.09;5049290;28;19910;-62
2023/09/13 03:45:59;;;;;;;;;;;;;;;17.96;100.00;101300.00;5051719;28;19991;-62
2023/09/13 03:48:24;;;;;;;;;;;;;;;17.93;100.00;101292.97;5055170;28;19940;-62
2023/09/13 03:50:49;;;;;;;;;;;;;;;17.90;100.00;101295.59;5047158;28;20048;-62
2023/09/13 03:53:15;;;;;;;;;;;;;;;17.89;100.00;101294.69;5052438;28;19919;-62
2023/09/13 03:55:40;;;;;;;;;;;;;;;17.88;100.00;101292.94;5047978;28;19972;-62
2023/09/13 03:58:06;;;;;;;;;;;;;;;17.91;100.00;101294.72;5044925;28;19967;-62
2023/09/13 04:00:31;;;;;;;;;;;;;;;17.89;100.00;101297.31;5043628;28;19913;-62
2023/09/13 04:02:56;;;;;;;;;;;;;;;17.90;100.00;101295.59;5050340;28;19929;-62
2023/09/13 04:05:21;;;;;;;;;;;;;;;17.93;100.00;101297.34;5053167;28;19913;-62
2023/09/13 04:07:47;;;;;;;;;;;;;;;17.97;100.00;101291.22;5031700;28;20067;-62
2023/09/13 04:10:12;;;;;;;;;;;;;;;18.01;100.00;101285.06;5051295;28;20066;-62
2023/09/13 04:12:37;;;;;;;;;;;;;;;17.92;100.00;101285.06;5031378;28;19913;-62
2023/09/13 04:15:03;;;;;;;;;;;;;;;17.92;100.00;101293.00;5050622;28;20321;-62
2023/09/13 04:17:28;;;;;;;;;;;;;;;17.95;100.00;101287.72;5048329;28;20007;-62
2023/09/13 04:19:54;;;;;;;;;;;;;;;17.96;100.00;101292.09;5048654;28;19913;-62
2023/09/13 04:22:19;;;;;;;;;;;;;;;17.87;100.00;101285.91;5047169;28;20190;-62
2023/09/13 04:24:44;;;;;;;;;;;;;;;17.87;100.00;101285.00;5050711;28;19950;-61
2023/09/13 04:27:09;;;;;;;;;;;;;;;17.83;100.00;101292.06;5051649;28;19936;-62
2023/09/13 04:29:39;;;;;;;;;;;;;;;17.84;100.00;101290.28;5044933;28;19920;-62
2023/09/13 04:32:05;;;;;;;;;;;;;;;17.82;100.00;101297.34;5050540;28;20231;-62
2023/09/13 04:34:36;;;;;;;;;;;;;;;17.85;100.00;101292.94;5061415;28;20004;-61
2023/09/13 04:37:02;;;;;;;;;;;;;;;17.88;100.00;101306.09;5043978;28;19913;-62
2023/09/13 04:39:28;;;;;;;;;;;;;;;17.93;100.00;101305.28;5049588;28;19929;-62
2023/09/13 04:41:53;;;;;;;;;;;;;;;17.90;100.00;101303.50;5052537;28;19913;-62
2023/09/13 04:44:19;;;;;;;;;;;;;;;17.87;100.00;101301.72;5048235;28;20015;-62
2023/09/13 04:46:44;;;;;;;;;;;;;;;17.90;100.00;101300.88;5047283;28;20051;-62
2023/09/13 04:49:09;;;;;;;;;;;;;;;17.89;100.00;101299.97;5046428;28;19913;-61
2023/09/13 04:51:36;;;;;;;;;;;;;;;17.87;100.00;101300.84;5046074;28;21435;-62
2023/09/13 04:54:01;;;;;;;;;;;;;;;17.88;100.00;101299.97;5047393;28;19955;-62
2023/09/13 04:56:26;;;;;;;;;;;;;;;17.85;100.00;101295.56;5045124;28;19925;-62
2023/09/13 04:58:52;;;;;;;;;;;;;;;17.86;100.00;101294.69;5053311;28;19924;-61
2023/09/13 05:01:17;;;;;;;;;;;;;;;17.85;100.00;101303.47;5045000;28;19912;-62
2023/09/13 05:03:42;;;;;;;;;;;;;;;17.83;100.00;101299.97;5052664;28;19940;-61
2023/09/13 05:06:08;;;;;;;;;;;;;;;17.85;100.00;101306.09;5043128;28;19944;-61
2023/09/13 05:08:33;;;;;;;;;;;;;;;17.86;100.00;101310.50;5054521;28;19921;-61
2023/09/13 05:10:58;;;;;;;;;;;;;;;17.88;100.00;101314.00;5042867;28;19921;-62
2023/09/13 05:13:24;;;;;;;;;;;;;;;17.87;100.00;101317.56;5027579;28;19982;-61
2023/09/13 05:15:49;;;;;;;;;;;;;;;17.87;100.00;101314.00;5044118;28;19959;-62
2023/09/13 05:18:14;;;;;;;;;;;;;;;17.84;100.00;101311.38;5044599;28;20151;-62
2023/09/13 05:20:39;;;;;;;;;;;;;;;17.86;100.00;101314.91;5044076;28;20058;-62
2023/09/13 05:23:04;;;;;;;;;;;;;;;17.85;100.00;101316.66;5044193;28;19910;-61
2023/09/13 05:25:30;;;;;;;;;;;;;;;17.86;100.00;101314.91;5043660;28;19909;-62
2023/09/13 05:27:55;;;;;;;;;;;;;;;17.82;100.00;101300.84;5051333;28;19917;-61
2023/09/13 05:30:21;;;;;;;;;;;;;;;17.83;100.00;101305.25;5044237;28;19986;-61
2023/09/13 05:32:46;;;;;;;;;;;;;;;17.83;100.00;101306.97;5044129;28;19925;-61
2023/09/13 05:35:12;;;;;;;;;;;;;;;17.83;100.00;101312.25;5044117;28;19937;-62
2023/09/13 05:37:37;;;;;;;;;;;;;;;17.84;100.00;101314.00;5052966;28;19908;-61
2023/09/13 05:40:06;;;;;;;;;;;;;;;17.83;100.00;101330.69;5043885;28;20228;-62
2023/09/13 05:42:32;;;;;;;;;;;;;;;17.81;100.00;101321.94;5044048;28;19909;-62
2023/09/13 05:44:57;;;;;;;;;;;;;;;17.81;100.00;101330.69;5043919;28;19913;-62
2023/09/13 05:47:22;;;;;;;;;;;;;;;17.81;100.00;101333.34;5044153;28;19929;-61
2023/09/13 05:49:47;;;;;;;;;;;;;;;17.84;100.00;101343.00;5047823;28;19913;-61
2023/09/13 05:52:12;;;;;;;;;;;;;;;17.84;100.00;101338.63;5044204;28;20213;-61
2023/09/13 05:54:38;;;;;;;;;;;;;;;17.86;100.00;101343.91;5042730;28;19920;-61
2023/09/13 05:57:03;;;;;;;;;;;;;;;17.85;100.00;101350.91;5043085;28;19910;-61
2023/09/13 05:59:29;;;;;;;;;;;;;;;17.88;100.00;101352.69;5046634;28;20197;-61
2023/09/13 06:01:54;;;;;;;;;;;;;;;17.87;100.00;101354.47;5046152;28;20182;-61
2023/09/13 06:04:19;;;;;;;;;;;;;;;17.88;100.00;101350.06;5043094;28;19943;-61
2023/09/13 06:06:45;;;;;;;;;;;;;;;17.85;100.00;101356.19;5041110;28;20151;-61
2023/09/13 06:09:10;;;;;;;;;;;;;;;17.87;100.00;101358.84;5043962;28;19909;-62
2023/09/13 06:11:35;;;;;;;;;;;;;;;17.86;100.00;101357.97;5055058;28;19913;-61
2023/09/13 06:14:04;;;;;;;;;;;;;;;17.85;100.00;101361.47;5051190;28;19915;-61
2023/09/13 06:16:29;;;;;;;;;;;;;;;17.84;100.00;101362.38;5025525;28;20067;-61
2023/09/13 06:18:54;;;;;;;;;;;;;;;17.83;100.00;101368.50;5042973;28;19955;-61
2023/09/13 06:21:20;;;;;;;;;;;;;;;17.84;100.00;101370.28;5043376;28;19917;-61
2023/09/13 06:23:46;;;;;;;;;;;;;;;17.81;100.00;101380.78;5043947;28;20096;-61
2023/09/13 06:26:11;;;;;;;;;;;;;;;17.83;100.00;101383.41;5046352;28;19913;-61
2023/09/13 06:28:36;;;;;;;;;;;;;;;17.94;100.00;101381.72;5043098;28;19909;-61
2023/09/13 06:31:01;;;;;;;;;;;;;;;17.89;100.00;101386.09;5043329;28;19909;-61
2023/09/13 06:33:27;;;;;;;;;;;;;;;17.91;100.00;101397.53;5049726;28;20102;-61
2023/09/13 06:35:54;;;;;;;;;;;;;;;17.84;100.00;101395.75;5045565;28;20086;-61
2023/09/13 06:38:19;;;;;;;;;;;;;;;17.87;100.00;101398.38;5038182;28;19913;-61
2023/09/13 06:40:47;;;;;;;;;;;;;;;17.92;100.00;101398.44;5051281;28;19948;-61
2023/09/13 06:43:12;;;;;;;;;;;;;;;17.85;100.00;101403.66;5032087;28;19940;-61
2023/09/13 06:45:38;;;;;;;;;;;;;;;17.82;100.00;101398.38;5048339;28;20066;-61
2023/09/13 06:48:03;;;;;;;;;;;;;;;17.82;100.00;101402.78;5043095;28;19936;-61
2023/09/13 06:50:29;;;;;;;;;;;;;;;17.85;100.00;101408.91;5043361;28;19913;-61
2023/09/13 06:52:54;;;;;;;;;;;;;;;17.84;100.00;101407.19;5046279;28;19913;-61
2023/09/13 06:55:19;;;;;;;;;;;;;;;17.91;100.00;101413.38;5048755;28;19954;-61
2023/09/13 06:57:48;;;;;;;;;;;;;;;17.94;100.00;101408.09;5041643;28;19980;-61
2023/09/13 07:00:13;;;;;;;;;;;;;;;17.93;100.00;101416.00;5046772;28;19919;-61
2023/09/13 07:02:39;;;;;;;;;;;;;;;17.92;100.00;101419.53;5043173;28;19916;-61
2023/09/13 07:05:05;;;;;;;;;;;;;;;17.95;100.00;101420.41;5047175;28;19955;-61
2023/09/13 07:07:30;;;;;;;;;;;;;;;17.98;100.00;101427.47;5040840;28;20071;-61
2023/09/13 07:09:55;;;;;;;;;;;;;;;18.02;100.00;101424.81;5041288;28;19959;-61
2023/09/13 07:12:20;;;;;;;;;;;;;;;18.17;100.00;101426.59;5043181;28;20204;-60
2023/09/13 07:14:46;;;;;;;;;;;;;;;18.14;100.00;101426.59;5035892;28;19920;-61
2023/09/13 07:17:11;;;;;;;;;;;;;;;18.23;100.00;101431.91;5025966;28;19917;-61
2023/09/13 07:19:36;;;;;;;;;;;;;;;18.20;100.00;101425.72;5027894;28;19913;-61
2023/09/13 07:22:03;;;;;;;;;;;;;;;18.19;100.00;101422.22;5025462;28;19914;-61
2023/09/13 07:24:28;;;;;;;;;;;;;;;18.32;100.00;101432.78;5021972;28;19919;-61
2023/09/13 07:26:55;;;;;;;;;;;;;;;18.30;100.00;101429.25;5027905;28;19910;-61
2023/09/13 07:29:20;;;;;;;;;;;;;;;18.38;100.00;101430.16;5022970;28;19916;-61
2023/09/13 07:31:45;;;;;;;;;;;;;;;18.38;100.00;101432.81;5005526;28;19910;-61
2023/09/13 07:34:11;;;;;;;;;;;;;;;18.38;100.00;101435.44;5022927;28;20044;-61
2023/09/13 07:36:37;;;;;;;;;;;;;;;18.56;100.00;101445.09;5022916;28;19945;-61
2023/09/13 07:39:03;;;;;;;;;;;;;;;18.51;100.00;101447.75;5023134;28;19909;-61
2023/09/13 07:41:28;;;;;;;;;;;;;;;18.50;100.00;101447.75;5029854;28;20154;-61
2023/09/13 07:43:53;;;;;;;;;;;;;;;18.31;100.00;101444.22;5010314;28;20039;-61
2023/09/13 07:46:19;;;;;;;;;;;;;;;18.25;100.00;101450.38;5021332;28;19916;-61
2023/09/13 07:48:44;;;;;;;;;;;;;;;18.28;100.00;101462.66;5021371;28;20198;-61
2023/09/13 07:51:09;;;;;;;;;;;;;;;18.27;100.00;101472.34;5024800;28;20210;-61
2023/09/13 07:53:34;;;;;;;;;;;;;;;18.01;100.00;101482.84;5024535;28;20142;-61
2023/09/13 07:56:00;;;;;;;;;;;;;;;17.90;100.00;101485.41;5033325;28;19916;-61
2023/09/13 07:58:25;;;;;;;;;;;;;;;17.79;100.00;101498.53;5026167;28;19977;-62
2023/09/13 08:00:51;;;;;;;;;;;;;;;17.65;100.00;101514.28;5023976;28;20115;-61
2023/09/13 08:03:16;;;;;;;;;;;;;;;17.59;100.00;101508.13;5026047;28;19977;-62
2023/09/13 08:08:22;;;;;;;;;;;;;;;17.45;100.00;101531.72;5016467;28;19932;-62
2023/09/13 08:10:48;;;;;;;;;;;;;;;17.44;100.00;101527.31;5011733;28;19918;-62
2023/09/13 08:13:16;;;;;;;;;;;;;;;17.35;100.00;101536.97;5010603;28;20319;-62
2023/09/13 08:15:42;;;;;;;;;;;;;;;17.32;100.00;101536.94;5013146;28;19925;-61
2023/09/13 08:18:15;;;;;;;;;;;;;;;17.33;100.00;101536.03;5012695;28;20402;-62
2023/09/13 08:20:45;;;;;;;;;;;;;;;17.34;100.00;101540.44;5010875;28;19917;-61
2023/09/13 08:23:11;;;;;;;;;;;;;;;17.39;100.00;101540.47;4995100;28;19929;-61
2023/09/13 08:25:36;;;;;;;;;;;;;;;17.41;100.00;101546.66;5010926;28;19913;-61
2023/09/13 08:28:03;;;;;;;;;;;;;;;17.44;100.00;101559.84;5011056;28;19932;-61
2023/09/13 08:30:31;;;;;;;;;;;;;;;17.53;100.00;101562.53;5012376;28;20462;-62
2023/09/13 08:32:57;;;;;;;;;;;;;;;17.49;100.00;101571.28;5012926;28;19921;-61
2023/09/13 08:35:25;;;;;;;;;;;;;;;17.43;100.00;101573.88;5013212;28;19913;-62
2023/09/13 08:37:51;;;;;;;;;;;;;;;17.42;100.00;101577.38;5013032;28;19914;-61
2023/09/13 08:40:16;;;;;;;;;;;;;;;17.44;100.00;101582.66;5012938;28;20499;-61
2023/09/13 08:42:41;;;;;;;;;;;;;;;17.49;100.00;101584.44;5011984;28;19924;-61
2023/09/13 08:45:07;;;;;;;;;;;;;;;17.51;100.00;101590.63;5012889;28;19924;-61
2023/09/13 08:47:36;;;;;;;;;;;;;;;17.46;100.00;101600.25;5007310;28;19963;-62
2023/09/13 08:50:02;;;;;;;;;;;;;;;17.48;100.00;101609.06;4993270;28;19920;-61
2023/09/13 08:52:28;;;;;;;;;;;;;;;17.52;100.00;101617.84;4993034;28;19914;-61
2023/09/13 08:54:55;;;;;;;;;;;;;;;17.48;100.00;101619.59;4993176;28;20300;-62
2023/09/13 08:57:22;;;;;;;;;;;;;;;17.41;100.00;101622.16;4997561;28;20382;-62
2023/09/13 08:59:48;;;;;;;;;;;;;;;17.34;100.00;101629.16;5006385;28;19925;-62
2023/09/13 09:02:17;;;;;;;;;;;;;;;17.31;100.00;101634.41;5009428;28;20378;-62
2023/09/13 09:04:43;;;;;;;;;;;;;;;17.29;100.00;101641.38;4992797;28;20123;-62
2023/09/13 09:07:09;;;;;;;;;;;;;;;17.29;100.00;101650.19;5006948;28;20308;-62
2023/09/13 09:09:34;;;;;;;;;;;;;;;17.31;100.00;101653.72;5020870;28;19921;-62
2023/09/13 09:12:00;;;;;;;;;;;;;;;17.37;100.00;101655.50;5023932;28;20143;-62
2023/09/13 09:14:30;;;;;;;;;;;;;;;17.37;100.00;101648.47;5024082;28;19913;-62
2023/09/13 09:16:55;;;;;;;;;;;;;;;17.40;100.00;101662.56;5022967;28;20072;-62
2023/09/13 09:19:20;;;;;;;;;;;;;;;17.42;100.00;101668.72;5023381;28;19921;-62
2023/09/13 09:21:46;;;;;;;;;;;;;;;17.44;100.00;101666.97;5024553;28;20288;-62
2023/09/13 09:24:14;;;;;;;;;;;;;;;17.45;100.00;101671.38;5006792;28;19953;-61
2023/09/13 09:26:39;;;;;;;;;;;;;;;17.47;100.00;101674.94;5024483;28;20059;-62
2023/09/13 09:29:14;;;;;;;;;;;;;;;17.38;100.00;101671.34;5024084;28;19932;-62
2023/09/13 09:31:40;;;;;;;;;;;;;;;17.27;100.00;101678.25;5023841;28;19964;-62
2023/09/13 09:34:05;;;;;;;;;;;;;;;17.27;100.00;101687.91;5023698;28;20171;-62
2023/09/13 09:36:34;;;;;;;;;;;;;;;17.26;100.00;101686.13;5024347;28;19910;-62
2023/09/13 09:39:04;;;;;;;;;;;;;;;17.26;100.00;101694.03;5024151;28;20004;-61
2023/09/13 09:41:33;;;;;;;;;;;;;;;17.31;100.00;101694.97;5024123;28;19952;-62
2023/09/13 09:43:58;;;;;;;;;;;;;;;17.35;100.00;101691.47;5023923;28;20159;-62
2023/09/13 09:46:23;;;;;;;;;;;;;;;17.41;100.00;101695.94;5024068;28;19909;-61
2023/09/13 09:48:50;;;;;;;;;;;;;;;17.40;100.00;101700.31;5023923;28;19914;-61
2023/09/13 09:51:16;;;;;;;;;;;;;;;17.45;100.00;101710.91;5024243;28;20155;-61
2023/09/13 09:53:41;;;;;;;;;;;;;;;17.50;100.00;101701.28;5023786;28;19932;-61
2023/09/13 09:56:06;;;;;;;;;;;;;;;17.48;100.00;101698.66;5022350;28;20000;-61
2023/09/13 09:58:32;;;;;;;;;;;;;;;17.51;100.00;101692.50;5024025;28;19910;-61
2023/09/13 10:01:00;;;;;;;;;;;;;;;17.63;100.00;101702.28;5023912;28;20110;-61
2023/09/13 10:03:25;;;;;;;;;;;;;;;17.73;100.00;101694.44;5022870;28;19913;-61
2023/09/13 10:06:10;;;;;;;;;;;;;;;17.84;100.00;101699.81;5021163;28;19920;-61
2023/09/13 10:08:40;;;;;;;;;;;;;;;17.99;100.00;101706.97;5022839;28;19914;-61
2023/09/13 10:11:06;;;;;;;;;;;;;;;18.13;100.00;101720.22;5022256;28;19913;-61
2023/09/13 10:13:32;;;;;;;;;;;;;;;18.28;100.00;101729.13;5023070;28;19951;-61
2023/09/13 10:15:57;;;;;;;;;;;;;;;18.35;100.00;101720.34;5023072;28;20202;-61
2023/09/13 10:18:24;;;;;;;;;;;;;;;18.39;100.00;101722.16;5023552;28;19909;-61
2023/09/13 10:20:50;;;;;;;;;;;;;;;18.52;100.00;101723.97;5021990;28;19914;-61
2023/09/13 10:23:16;;;;;;;;;;;;;;;18.68;100.00;101729.31;5022970;28;19988;-61
2023/09/13 10:25:43;;;;;;;;;;;;;;;18.88;100.00;101729.44;5023691;28;19934;-61
2023/09/13 10:28:10;;;;;;;;;;;;;;;19.05;100.00;101724.22;5023376;28;19948;-61
2023/09/13 10:30:36;;;;;;;;;;;;;;;19.06;100.00;101720.66;5023273;28;19964;-60
2023/09/13 10:33:03;;;;;;;;;;;;;;;19.20;100.00;101729.50;5023296;28;20143;-60
2023/09/13 10:35:29;;;;;;;;;;;;;;;19.39;100.00;101734.84;5022407;28;19913;-60
2023/09/13 10:38:11;;;;;;;;;;;;;;;19.61;100.00;101746.31;5023523;28;19917;-60
2023/09/13 10:40:37;;;;;;;;;;;;;;;19.73;100.00;101748.97;5023259;28;19910;-59
2023/09/13 10:43:02;;;;;;;;;;;;;;;19.87;100.00;101742.81;5022018;28;20001;-60
2023/09/13 10:45:28;;;;;;;;;;;;;;;20.01;99.32;101745.47;5022176;28;19981;-60
2023/09/13 10:47:54;;;;;;;;;;;;;;;20.13;100.00;101766.59;5022274;28;20092;-60
2023/09/13 10:50:19;;;;;;;;;;;;;;;20.25;99.76;101763.94;5021656;28;20182;-60
2023/09/13 10:52:45;;;;;;;;;;;;;;;20.31;100.00;101766.56;5005044;28;19914;-60
2023/09/13 10:55:11;;;;;;;;;;;;;;;20.39;99.82;101768.31;5022704;28;20067;-59
2023/09/13 10:57:37;;;;;;;;;;;;;;;20.46;98.02;101768.28;5020124;28;19924;-59
2023/09/13 11:00:09;;;;;;;;;;;;;;;20.29;96.36;101765.69;5021090;28;19913;-60
2023/09/13 11:02:34;;;;;;;;;;;;;;;20.15;97.65;101775.44;5021792;28;19976;-59
2023/09/13 11:04:59;;;;;;;;;;;;;;;20.00;98.34;101773.66;5020750;28;19921;-59
2023/09/13 11:07:24;;;;;;;;;;;;;;;19.90;97.84;101775.44;5021360;28;20099;-59
2023/09/13 11:09:50;;;;;;;;;;;;;;;19.89;98.67;101778.97;5018441;28;20151;-59
2023/09/13 11:12:15;;;;;;;;;;;;;;;19.87;96.94;101780.75;5021594;28;19933;-59
2023/09/13 11:14:47;;;;;;;;;;;;;;;19.74;97.60;101777.19;5022875;28;19965;-59
2023/09/13 11:17:37;;;;;;;;;;;;;;;19.70;97.63;101780.69;5019841;28;19917;-59
2023/09/13 11:20:38;;;;;;;;;;;;;;;19.86;97.03;101786.91;5020887;28;19921;-59
2023/09/13 11:23:10;;;;;;;;;;;;;;;20.02;96.47;101789.56;5004208;28;19933;-59
2023/09/13 11:25:36;;;;;;;;;;;;;;;20.01;96.16;101796.59;5025076;28;19937;-59
2023/09/13 11:28:05;;;;;;;;;;;;;;;19.90;96.84;101806.28;5026640;28;20106;-59
2023/09/13 11:31:01;;;;;;;;;;;;;;;19.78;95.94;101801.84;5024937;28;20374;-59
2023/09/13 11:33:27;;;;;;;;;;;;;;;19.57;95.93;101814.16;5008949;28;19933;-59
2023/09/13 11:35:53;;;;;;;;;;;;;;;19.46;95.36;101827.38;5026680;28;19929;-59
2023/09/13 11:38:21;;;;;;;;;;;;;;;19.40;96.57;101822.06;5026493;28;19909;-59
2023/09/13 11:40:49;;;;;;;;;;;;;;;19.36;97.08;101827.34;5026556;28;20194;-59
2023/09/13 11:43:22;;;;;;;;;;;;;;;19.32;97.09;101836.13;5026528;28;19992;-60
2023/09/13 11:45:48;;;;;;;;;;;;;;;19.25;97.06;101844.03;5026439;28;20157;-59
2023/09/13 11:48:18;;;;;;;;;;;;;;;19.21;95.38;101844.03;5025074;28;19913;-59
2023/09/13 11:50:44;;;;;;;;;;;;;;;19.14;96.13;101847.53;5026323;28;19914;-59
2023/09/13 11:53:13;;;;;;;;;;;;;;;19.08;96.24;101848.38;5026554;28;19948;-59
2023/09/13 11:55:42;;;;;;;;;;;;;;;19.10;96.72;101847.50;5008712;28;19909;-59
2023/09/13 11:58:13;;;;;;;;;;;;;;;19.15;96.50;101846.63;5024115;28;19914;-59
2023/09/13 12:00:40;;;;;;;;;;;;;;;19.15;96.40;101847.53;5025568;28;19913;-59
2023/09/13 12:03:05;;;;;;;;;;;;;;;19.20;95.20;101842.25;5026185;28;20148;-59
2023/09/13 12:05:30;;;;;;;;;;;;;;;19.14;93.03;101845.75;5026211;28;20147;-59
2023/09/13 12:07:57;;;;;;;;;;;;;;;19.07;94.82;101854.53;5025838;28;19963;-59
2023/09/13 12:10:35;;;;;;;;;;;;;;;19.15;95.47;101850.16;5008481;28;20137;-59
2023/09/13 12:13:00;;;;;;;;;;;;;;;19.50;94.43;101846.75;5025457;28;19913;-59
2023/09/13 12:15:25;;;;;;;;;;;;;;;19.90;89.98;101840.69;5024785;28;19929;-59
2023/09/13 12:17:51;;;;;;;;;;;;;;;20.03;91.80;101853.06;5025324;28;19976;-59
2023/09/13 12:20:16;;;;;;;;;;;;;;;20.05;91.00;101856.56;5025756;28;20255;-59
2023/09/13 12:22:41;;;;;;;;;;;;;;;19.97;91.44;101861.88;5025190;28;20171;-58
2023/09/13 12:25:10;;;;;;;;;;;;;;;19.94;92.12;101868.91;5025912;28;19914;-58
2023/09/13 12:27:36;;;;;;;;;;;;;;;19.82;87.21;101869.78;5008157;28;19933;-59